Time;durP1;ratioP1;P1;durP2;ratioP2;P2;SDS_P1;SDS_P2;PMS_P1;PMS_P2;Temp;Humidity;BMP_temperature;BMP_pressure;BME280_temperature;BME280_humidity;BME280_pressure;Samples;Min_cycle;Max_cycle;Signal;HPM_P1;HPM_P2
2022/12/14 00:01:57;;;;;;;;;;;20.00;96.00;;;;;;5056620;28;20280;-64
2022/12/14 00:04:24;;;;;;;;;;;20.10;95.70;;;;;;5055716;28;20407;-63
2022/12/14 00:06:51;;;;;;;;;;;20.10;95.00;;;;;;5055389;28;19919;-65
2022/12/14 00:09:18;;;;;;;;;;;19.90;96.10;;;;;;5055853;28;19917;-65
2022/12/14 00:11:44;;;;;;;;;;;20.00;96.00;;;;;;5056646;28;19955;-65
2022/12/14 00:14:11;;;;;;;;;;;20.30;95.30;;;;;;5036785;28;19910;-65
2022/12/14 00:16:38;;;;;;;;;;;20.40;95.40;;;;;;5036416;28;19913;-67
2022/12/14 00:19:05;;;;;;;;;;;20.50;94.80;;;;;;5053518;28;19970;-63
2022/12/14 00:21:31;;;;;;;;;;;20.60;95.40;;;;;;5056341;28;19913;-65
2022/12/14 00:23:59;;;;;;;;;;;21.00;95.00;;;;;;5055061;28;20008;-65
2022/12/14 00:26:27;;;;;;;;;;;21.00;94.70;;;;;;5056080;28;19920;-63
2022/12/14 00:28:54;;;;;;;;;;;20.90;94.60;;;;;;5055043;28;20268;-63
2022/12/14 00:31:21;;;;;;;;;;;20.80;94.50;;;;;;5054824;28;19970;-63
2022/12/14 00:33:49;;;;;;;;;;;20.90;93.90;;;;;;5055863;28;19955;-63
2022/12/14 00:36:15;;;;;;;;;;;21.20;94.10;;;;;;5053630;28;20319;-62
2022/12/14 00:38:42;;;;;;;;;;;21.40;93.20;;;;;;5054555;28;19966;-64
2022/12/14 00:41:10;;;;;;;;;;;21.40;93.20;;;;;;5055553;28;19913;-64
2022/12/14 00:43:37;;;;;;;;;;;21.70;93.00;;;;;;5053699;28;20287;-63
2022/12/14 00:46:04;;;;;;;;;;;21.60;92.20;;;;;;5054478;28;19935;-63
2022/12/14 00:48:31;;;;;;;;;;;21.90;91.80;;;;;;5055675;28;19909;-64
2022/12/14 00:50:57;;;;;;;;;;;22.10;90.70;;;;;;5053549;28;20326;-63
2022/12/14 00:53:24;;;;;;;;;;;22.30;89.80;;;;;;5055481;28;19917;-63
2022/12/14 00:55:51;;;;;;;;;;;22.30;88.50;;;;;;5055092;28;19909;-63
2022/12/14 00:58:19;;;;;;;;;;;21.90;87.20;;;;;;5055447;28;19921;-64
2022/12/14 01:00:47;;;;;;;;;;;22.10;89.40;;;;;;5054339;28;19916;-64
2022/12/14 01:03:14;;;;;;;;;;;22.80;85.70;;;;;;5054470;28;19919;-64
2022/12/14 01:05:41;;;;;;;;;;;23.60;83.60;;;;;;5054444;28;19912;-63
2022/12/14 01:08:08;;;;;;;;;;;23.50;83.60;;;;;;5054521;28;19921;-64
2022/12/14 01:10:37;;;;;;;;;;;23.70;82.20;;;;;;5055405;28;19908;-64
2022/12/14 01:13:04;;;;;;;;;;;24.20;81.30;;;;;;5054324;28;19913;-65
2022/12/14 01:15:30;;;;;;;;;;;24.40;80.00;;;;;;5055115;28;19913;-64
2022/12/14 01:17:57;;;;;;;;;;;24.50;77.80;;;;;;5054320;28;19920;-64
2022/12/14 01:20:24;;;;;;;;;;;24.10;75.80;;;;;;5053979;28;20383;-64
2022/12/14 01:22:55;;;;;;;;;;;23.90;76.80;;;;;;5055081;28;20275;-64
2022/12/14 01:25:21;;;;;;;;;;;24.40;76.80;;;;;;5054083;28;19947;-64
2022/12/14 01:27:48;;;;;;;;;;;24.90;75.30;;;;;;5053606;28;20256;-65
2022/12/14 01:30:17;;;;;;;;;;;25.20;74.40;;;;;;5054812;28;20016;-65
2022/12/14 01:32:43;;;;;;;;;;;25.00;72.70;;;;;;5052830;28;20390;-64
2022/12/14 01:35:10;;;;;;;;;;;24.80;73.40;;;;;;5054643;28;20329;-63
2022/12/14 01:37:37;;;;;;;;;;;24.60;71.20;;;;;;5049601;28;20006;-64
2022/12/14 01:40:03;;;;;;;;;;;24.20;71.30;;;;;;5055047;28;19917;-64
2022/12/14 01:42:30;;;;;;;;;;;24.30;71.80;;;;;;5054036;28;19917;-64
2022/12/14 01:44:57;;;;;;;;;;;24.40;70.60;;;;;;5054433;28;20007;-64
2022/12/14 01:47:27;;;;;;;;;;;24.30;71.60;;;;;;5053618;28;20162;-65
2022/12/14 01:49:56;;;;;;;;;;;24.00;72.90;;;;;;5054492;28;20008;-64
2022/12/14 01:52:27;;;;;;;;;;;23.40;72.10;;;;;;5053486;28;19967;-64
2022/12/14 01:55:09;;;;;;;;;;;23.10;71.30;;;;;;5053866;28;19909;-64
2022/12/14 01:57:47;;;;;;;;;;;22.60;74.00;;;;;;5054214;28;19923;-65
2022/12/14 02:00:13;;;;;;;;;;;22.90;72.40;;;;;;5053074;28;19970;-65
2022/12/14 02:02:43;;;;;;;;;;;22.80;71.30;;;;;;5053991;28;19913;-66
2022/12/14 02:05:10;;;;;;;;;;;22.80;72.60;;;;;;5054227;28;19913;-65
2022/12/14 02:07:38;;;;;;;;;;;22.90;71.20;;;;;;5047904;28;19913;-65
2022/12/14 02:10:05;;;;;;;;;;;22.70;72.50;;;;;;5052940;28;20008;-65
2022/12/14 02:12:38;;;;;;;;;;;22.90;72.30;;;;;;5053086;28;19919;-66
2022/12/14 02:15:05;;;;;;;;;;;23.00;70.60;;;;;;5053853;28;19913;-64
2022/12/14 02:17:32;;;;;;;;;;;23.00;71.80;;;;;;5053192;28;20275;-66
2022/12/14 02:19:59;;;;;;;;;;;23.10;74.20;;;;;;5054056;28;20343;-65
2022/12/14 02:22:25;;;;;;;;;;;23.20;70.40;;;;;;5053845;28;19909;-65
2022/12/14 02:24:52;;;;;;;;;;;23.10;68.40;;;;;;5053664;28;19948;-65
2022/12/14 02:27:37;;;;;;;;;;;22.80;67.60;;;;;;5052858;28;20283;-64
2022/12/14 02:30:10;;;;;;;;;;;22.70;67.00;;;;;;5053678;28;20023;-66
2022/12/14 02:32:36;;;;;;;;;;;22.70;68.30;;;;;;5053219;28;20038;-65
2022/12/14 02:35:12;;;;;;;;;;;23.00;68.80;;;;;;5053684;28;20312;-65
2022/12/14 02:37:42;;;;;;;;;;;22.90;69.10;;;;;;5052980;28;19953;-65
2022/12/14 02:40:17;;;;;;;;;;;22.90;67.70;;;;;;5053609;28;19924;-65
2022/12/14 02:42:44;;;;;;;;;;;23.10;69.90;;;;;;5052751;28;19920;-65
2022/12/14 02:45:14;;;;;;;;;;;22.80;69.40;;;;;;5052891;28;19917;-65
2022/12/14 02:47:50;;;;;;;;;;;22.80;67.60;;;;;;5053518;28;19920;-66
2022/12/14 02:50:16;;;;;;;;;;;23.00;69.30;;;;;;5052632;28;19966;-65
2022/12/14 02:52:46;;;;;;;;;;;22.90;68.30;;;;;;5052363;28;19913;-65
2022/12/14 02:55:12;;;;;;;;;;;23.00;67.70;;;;;;5053489;28;20001;-65
2022/12/14 02:57:39;;;;;;;;;;;22.90;65.90;;;;;;5052569;28;19921;-66
2022/12/14 03:00:06;;;;;;;;;;;23.00;68.60;;;;;;5053299;28;19921;-66
2022/12/14 03:02:34;;;;;;;;;;;23.30;67.70;;;;;;5052490;28;19917;-65
2022/12/14 03:05:01;;;;;;;;;;;23.40;68.10;;;;;;5052924;28;19956;-66
2022/12/14 03:07:48;;;;;;;;;;;23.30;67.30;;;;;;5050505;28;20003;-65
2022/12/14 03:10:14;;;;;;;;;;;22.90;65.40;;;;;;5052919;28;19951;-66
2022/12/14 03:12:42;;;;;;;;;;;23.10;67.40;;;;;;5052328;28;19912;-65
2022/12/14 03:15:10;;;;;;;;;;;23.20;66.30;;;;;;5052855;28;19916;-65
2022/12/14 03:17:38;;;;;;;;;;;23.40;66.60;;;;;;5052460;28;19943;-66
2022/12/14 03:20:08;;;;;;;;;;;23.40;67.40;;;;;;5053178;28;20032;-65
2022/12/14 03:22:38;;;;;;;;;;;23.30;66.00;;;;;;5051189;28;20295;-65
2022/12/14 03:25:13;;;;;;;;;;;23.00;65.30;;;;;;5052151;28;19912;-65
2022/12/14 03:27:43;;;;;;;;;;;23.10;66.60;;;;;;5053002;28;20260;-66
2022/12/14 03:30:14;;;;;;;;;;;23.30;66.80;;;;;;5052601;28;20394;-65
2022/12/14 03:32:44;;;;;;;;;;;23.50;68.30;;;;;;5053038;28;20285;-66
2022/12/14 03:35:13;;;;;;;;;;;23.70;67.00;;;;;;5052273;28;19916;-66
2022/12/14 03:38:00;;;;;;;;;;;23.70;66.90;;;;;;5051087;28;19924;-66
2022/12/14 03:40:33;;;;;;;;;;;23.60;64.70;;;;;;5052566;28;19917;-66
2022/12/14 03:43:23;;;;;;;;;;;23.50;62.80;;;;;;5051793;28;19913;-66
2022/12/14 03:45:59;;;;;;;;;;;23.50;62.40;;;;;;5015768;28;19912;-66
2022/12/14 03:48:58;;;;;;;;;;;23.70;63.80;;;;;;5051924;28;19966;-66
2022/12/14 03:51:30;;;;;;;;;;;23.80;61.90;;;;;;5018482;28;20348;-66
2022/12/14 03:53:59;;;;;;;;;;;23.90;61.50;;;;;;5052853;28;20017;-65
2022/12/14 03:56:43;;;;;;;;;;;23.80;61.60;;;;;;5051942;28;20321;-65
2022/12/14 03:59:23;;;;;;;;;;;23.70;63.40;;;;;;5052628;28;19925;-65
2022/12/14 04:01:50;;;;;;;;;;;23.90;62.60;;;;;;5052013;28;20372;-65
2022/12/14 04:04:19;;;;;;;;;;;23.80;63.90;;;;;;5051611;28;19936;-65
2022/12/14 04:07:09;;;;;;;;;;;23.90;62.60;;;;;;5051507;28;19913;-65
2022/12/14 04:09:45;;;;;;;;;;;23.90;62.20;;;;;;5052795;28;19909;-64
2022/12/14 04:21:13;;;;;;;;;;;23.50;61.80;;;;;;5055692;28;19967;-66
2022/12/14 04:26:31;;;;;;;;;;;23.70;63.20;;;;;;5056414;28;19951;-68
2022/12/14 04:31:51;;;;;;;;;;;23.90;62.10;;;;;;5056258;28;19936;-68
2022/12/14 04:34:19;;;;;;;;;;;23.70;63.10;;;;;;5054919;28;19913;-69
2022/12/14 04:36:51;;;;;;;;;;;23.80;63.40;;;;;;5054581;28;19913;-68
2022/12/14 04:39:21;;;;;;;;;;;23.80;62.70;;;;;;5055881;28;19917;-69
2022/12/14 04:41:49;;;;;;;;;;;23.90;63.60;;;;;;5054984;28;19919;-65
2022/12/14 04:44:21;;;;;;;;;;;23.70;62.70;;;;;;5055606;28;19931;-68
2022/12/14 04:46:50;;;;;;;;;;;23.50;63.60;;;;;;5054432;28;19921;-68
2022/12/14 04:49:19;;;;;;;;;;;23.30;63.40;;;;;;5054833;28;19949;-68
2022/12/14 04:51:52;;;;;;;;;;;23.40;64.00;;;;;;5055743;28;20011;-65
2022/12/14 04:54:27;;;;;;;;;;;23.60;64.30;;;;;;5053962;28;19975;-68
2022/12/14 04:57:12;;;;;;;;;;;23.70;63.00;;;;;;5055453;28;19920;-68
2022/12/14 04:59:39;;;;;;;;;;;23.20;64.20;;;;;;5054739;28;19920;-66
2022/12/14 05:02:08;;;;;;;;;;;23.40;64.40;;;;;;5054601;28;19935;-65
2022/12/14 05:04:56;;;;;;;;;;;23.50;62.60;;;;;;5054734;28;19995;-65
2022/12/14 05:07:32;;;;;;;;;;;23.40;63.30;;;;;;5053483;28;19913;-65
2022/12/14 05:10:13;;;;;;;;;;;23.30;64.50;;;;;;5055503;28;20410;-64
2022/12/14 05:12:40;;;;;;;;;;;23.30;66.00;;;;;;5054412;28;20444;-64
2022/12/14 05:15:19;;;;;;;;;;;23.20;64.90;;;;;;5054290;28;19913;-66
2022/12/14 05:17:46;;;;;;;;;;;23.10;65.00;;;;;;5054394;28;19963;-68
2022/12/14 05:20:14;;;;;;;;;;;23.30;66.10;;;;;;5055275;28;19968;-65
2022/12/14 05:22:41;;;;;;;;;;;23.30;65.60;;;;;;5054001;28;19917;-69
2022/12/14 05:25:07;;;;;;;;;;;23.30;65.20;;;;;;5054762;28;19917;-68
2022/12/14 05:27:34;;;;;;;;;;;23.10;65.30;;;;;;5054473;28;19913;-69
2022/12/14 05:30:01;;;;;;;;;;;23.20;66.50;;;;;;5054203;28;20003;-69
2022/12/14 05:32:30;;;;;;;;;;;23.20;65.70;;;;;;5054155;28;20360;-68
2022/12/14 05:34:57;;;;;;;;;;;23.00;65.40;;;;;;5054534;28;19913;-69
2022/12/14 05:37:24;;;;;;;;;;;23.00;65.80;;;;;;5053355;28;19909;-69
2022/12/14 05:39:50;;;;;;;;;;;22.90;65.70;;;;;;5054663;28;19929;-69
2022/12/14 05:42:17;;;;;;;;;;;22.90;66.30;;;;;;5053874;28;19959;-67
2022/12/14 05:44:44;;;;;;;;;;;22.90;67.10;;;;;;5053245;28;20317;-66
2022/12/14 05:47:11;;;;;;;;;;;23.00;67.00;;;;;;5053681;28;19924;-68
2022/12/14 05:49:37;;;;;;;;;;;22.80;66.20;;;;;;5053598;28;19913;-66
2022/12/14 05:52:04;;;;;;;;;;;22.80;66.10;;;;;;5051022;28;20279;-68
2022/12/14 05:54:31;;;;;;;;;;;22.60;66.70;;;;;;5052334;28;19912;-66
2022/12/14 05:56:58;;;;;;;;;;;22.70;66.80;;;;;;5051333;28;19909;-66
2022/12/14 05:59:24;;;;;;;;;;;22.80;67.40;;;;;;5050500;28;19928;-68
2022/12/14 06:01:51;;;;;;;;;;;22.90;67.30;;;;;;5038349;28;19921;-69
2022/12/14 06:04:18;;;;;;;;;;;22.80;67.10;;;;;;5049408;28;19913;-69
2022/12/14 06:06:45;;;;;;;;;;;22.80;67.10;;;;;;5050303;28;20441;-69
2022/12/14 06:09:16;;;;;;;;;;;22.70;67.10;;;;;;5052273;28;20368;-69
2022/12/14 06:11:43;;;;;;;;;;;22.50;67.40;;;;;;5051151;28;20073;-70
2022/12/14 06:14:10;;;;;;;;;;;22.60;68.50;;;;;;5051779;28;20468;-69
2022/12/14 06:16:39;;;;;;;;;;;22.70;70.10;;;;;;5051333;28;19939;-68
2022/12/14 06:19:06;;;;;;;;;;;22.80;68.60;;;;;;5050326;28;19929;-67
2022/12/14 06:21:34;;;;;;;;;;;22.70;67.20;;;;;;5051254;28;19931;-68
2022/12/14 06:24:01;;;;;;;;;;;22.70;67.80;;;;;;5050842;28;19971;-68
2022/12/14 06:26:29;;;;;;;;;;;22.60;67.80;;;;;;5051303;28;19944;-67
2022/12/14 06:28:57;;;;;;;;;;;22.60;68.40;;;;;;5047322;28;19994;-70
2022/12/14 06:31:25;;;;;;;;;;;22.60;69.30;;;;;;5044897;28;20294;-70
2022/12/14 06:33:53;;;;;;;;;;;22.70;68.90;;;;;;5044265;28;19920;-67
2022/12/14 06:36:22;;;;;;;;;;;22.60;68.50;;;;;;5044051;28;19916;-70
2022/12/14 06:38:50;;;;;;;;;;;22.40;67.60;;;;;;5044540;28;19920;-69
2022/12/14 06:41:16;;;;;;;;;;;22.20;68.50;;;;;;5042790;28;19912;-68
2022/12/14 06:43:43;;;;;;;;;;;22.40;68.70;;;;;;5044410;28;19913;-69
2022/12/14 06:46:14;;;;;;;;;;;22.40;69.10;;;;;;5043948;28;19921;-66
2022/12/14 06:48:40;;;;;;;;;;;22.20;68.80;;;;;;5045055;28;20355;-68
2022/12/14 06:51:10;;;;;;;;;;;22.20;68.80;;;;;;5043975;28;19955;-69
2022/12/14 06:53:37;;;;;;;;;;;22.20;69.30;;;;;;5044963;28;19912;-69
2022/12/14 06:56:09;;;;;;;;;;;22.20;69.10;;;;;;5043848;28;19950;-67
2022/12/14 06:58:36;;;;;;;;;;;22.10;69.10;;;;;;5044311;28;19924;-67
2022/12/14 07:01:03;;;;;;;;;;;22.00;69.20;;;;;;5043505;28;20391;-70
2022/12/14 07:03:30;;;;;;;;;;;22.00;69.90;;;;;;5044203;28;19921;-70
2022/12/14 07:05:57;;;;;;;;;;;22.00;69.70;;;;;;5044427;28;19917;-67
2022/12/14 07:08:25;;;;;;;;;;;21.90;70.50;;;;;;5043597;28;19917;-69
2022/12/14 07:10:52;;;;;;;;;;;22.00;70.70;;;;;;5043970;28;20649;-68
2022/12/14 07:13:20;;;;;;;;;;;22.10;71.00;;;;;;5043115;28;19917;-69
2022/12/14 07:15:53;;;;;;;;;;;21.90;69.70;;;;;;5044308;28;19913;-67
2022/12/14 07:18:20;;;;;;;;;;;21.80;70.40;;;;;;5043432;28;19921;-67
2022/12/14 07:20:57;;;;;;;;;;;21.70;70.30;;;;;;5044072;28;19913;-69
2022/12/14 07:23:24;;;;;;;;;;;21.70;70.50;;;;;;5043469;28;19924;-68
2022/12/14 07:25:51;;;;;;;;;;;21.70;70.60;;;;;;5044255;28;19912;-69
2022/12/14 07:28:18;;;;;;;;;;;21.60;70.20;;;;;;5042473;28;19917;-68
2022/12/14 07:30:46;;;;;;;;;;;21.40;70.20;;;;;;5024228;28;19920;-67
2022/12/14 07:33:12;;;;;;;;;;;21.50;71.00;;;;;;5039190;28;19920;-68
2022/12/14 07:35:39;;;;;;;;;;;21.50;71.80;;;;;;5044188;28;20035;-67
2022/12/14 07:38:06;;;;;;;;;;;21.50;72.30;;;;;;5042926;28;19916;-66
2022/12/14 07:40:35;;;;;;;;;;;21.50;72.10;;;;;;5043914;28;19919;-69
2022/12/14 07:43:02;;;;;;;;;;;21.30;70.80;;;;;;5042819;28;19936;-69
2022/12/14 07:45:29;;;;;;;;;;;21.20;70.30;;;;;;5043567;28;19952;-66
2022/12/14 07:47:56;;;;;;;;;;;21.10;70.30;;;;;;5044320;28;20349;-68
2022/12/14 07:50:23;;;;;;;;;;;21.10;70.60;;;;;;5033236;28;19921;-68
2022/12/14 07:52:50;;;;;;;;;;;21.00;70.80;;;;;;5026156;28;19913;-66
2022/12/14 07:55:16;;;;;;;;;;;21.00;70.60;;;;;;5036800;28;19917;-65
2022/12/14 07:57:43;;;;;;;;;;;21.00;71.40;;;;;;5047280;28;20011;-68
2022/12/14 08:00:10;;;;;;;;;;;20.80;71.30;;;;;;5047044;28;19929;-66
2022/12/14 08:02:37;;;;;;;;;;;20.90;71.50;;;;;;5047240;28;20093;-67
2022/12/14 08:05:03;;;;;;;;;;;20.80;71.10;;;;;;5047564;28;19921;-69
2022/12/14 08:07:30;;;;;;;;;;;20.80;71.60;;;;;;5045048;28;19916;-68
2022/12/14 08:09:57;;;;;;;;;;;20.70;72.30;;;;;;5048061;28;19917;-64
2022/12/14 08:12:23;;;;;;;;;;;20.70;71.80;;;;;;5046944;28;19917;-65
2022/12/14 08:14:50;;;;;;;;;;;20.60;71.40;;;;;;5051303;28;19935;-64
2022/12/14 08:17:17;;;;;;;;;;;20.60;72.40;;;;;;5055565;28;19909;-65
2022/12/14 08:19:44;;;;;;;;;;;20.60;71.80;;;;;;5056195;28;19988;-67
2022/12/14 08:22:10;;;;;;;;;;;20.60;72.10;;;;;;5055498;28;19917;-65
2022/12/14 08:24:37;;;;;;;;;;;20.50;72.10;;;;;;5056370;28;19920;-64
2022/12/14 08:27:04;;;;;;;;;;;20.50;72.70;;;;;;5055872;28;19909;-69
2022/12/14 08:29:30;;;;;;;;;;;20.50;72.20;;;;;;5055317;28;19965;-68
2022/12/14 08:31:57;;;;;;;;;;;20.50;72.10;;;;;;5056099;28;19967;-68
2022/12/14 08:34:24;;;;;;;;;;;20.30;72.20;;;;;;5055493;28;19943;-64
2022/12/14 08:36:51;;;;;;;;;;;20.30;72.70;;;;;;5053927;28;19923;-65
2022/12/14 08:39:17;;;;;;;;;;;20.30;73.10;;;;;;5055824;28;19924;-66
2022/12/14 08:41:45;;;;;;;;;;;20.40;73.10;;;;;;5055112;28;19916;-64
2022/12/14 08:44:12;;;;;;;;;;;20.40;72.80;;;;;;5055865;28;19950;-68
2022/12/14 08:46:39;;;;;;;;;;;20.40;72.80;;;;;;5055139;28;20008;-67
2022/12/14 08:49:05;;;;;;;;;;;20.30;72.50;;;;;;5055617;28;19917;-64
2022/12/14 08:51:35;;;;;;;;;;;20.20;71.50;;;;;;5054987;28;20260;-67
2022/12/14 08:54:02;;;;;;;;;;;20.20;71.30;;;;;;5055614;28;19913;-66
2022/12/14 08:56:29;;;;;;;;;;;20.20;71.50;;;;;;5054577;28;19954;-68
2022/12/14 08:58:56;;;;;;;;;;;20.20;72.00;;;;;;5055276;28;19921;-65
2022/12/14 09:01:25;;;;;;;;;;;20.20;72.10;;;;;;5054815;28;19912;-67
2022/12/14 09:03:51;;;;;;;;;;;20.10;72.10;;;;;;5053277;28;19919;-67
2022/12/14 09:06:22;;;;;;;;;;;20.10;71.90;;;;;;5054568;28;19966;-68
2022/12/14 09:08:49;;;;;;;;;;;20.00;72.50;;;;;;5055199;28;19913;-66
2022/12/14 09:11:17;;;;;;;;;;;20.10;72.60;;;;;;5054577;28;20004;-68
2022/12/14 09:13:45;;;;;;;;;;;20.00;72.70;;;;;;5054667;28;19920;-67
2022/12/14 09:16:13;;;;;;;;;;;20.00;72.30;;;;;;5054217;28;19939;-67
2022/12/14 09:18:40;;;;;;;;;;;19.90;72.50;;;;;;5055155;28;20016;-68
2022/12/14 09:21:07;;;;;;;;;;;19.90;72.70;;;;;;5054015;28;20326;-69
2022/12/14 09:23:35;;;;;;;;;;;19.90;74.10;;;;;;5054985;28;19948;-68
2022/12/14 09:26:03;;;;;;;;;;;19.90;74.00;;;;;;5054101;28;19936;-68
2022/12/14 09:28:30;;;;;;;;;;;19.90;73.90;;;;;;5054784;28;19940;-66
2022/12/14 09:30:58;;;;;;;;;;;19.80;73.20;;;;;;5053504;28;20376;-69
2022/12/14 09:33:25;;;;;;;;;;;19.80;74.40;;;;;;5054943;28;19909;-67
2022/12/14 09:35:52;;;;;;;;;;;19.80;74.30;;;;;;5054043;28;19913;-69
2022/12/14 09:38:19;;;;;;;;;;;19.80;74.50;;;;;;5054661;28;19951;-69
2022/12/14 09:40:52;;;;;;;;;;;19.80;74.30;;;;;;5053760;28;20291;-65
2022/12/14 09:43:39;;;;;;;;;;;19.70;74.20;;;;;;5052540;28;19920;-68
2022/12/14 09:46:23;;;;;;;;;;;19.70;74.00;;;;;;5054560;28;19913;-65
2022/12/14 09:48:51;;;;;;;;;;;19.70;75.00;;;;;;5053552;28;19913;-66
2022/12/14 09:51:19;;;;;;;;;;;19.70;74.70;;;;;;5050773;28;19913;-68
2022/12/14 09:53:49;;;;;;;;;;;19.60;74.90;;;;;;5045097;28;20666;-69
2022/12/14 09:56:19;;;;;;;;;;;19.50;74.70;;;;;;5046132;28;19913;-67
2022/12/14 09:58:54;;;;;;;;;;;19.50;74.80;;;;;;5044274;28;19979;-67
2022/12/14 10:01:21;;;;;;;;;;;19.50;75.30;;;;;;5045434;28;19978;-69
2022/12/14 10:03:52;;;;;;;;;;;19.50;75.80;;;;;;5044886;28;19921;-69
2022/12/14 10:06:25;;;;;;;;;;;19.50;75.50;;;;;;5045327;28;19913;-67
2022/12/14 10:08:58;;;;;;;;;;;19.50;76.10;;;;;;5044661;28;20013;-67
2022/12/14 10:11:30;;;;;;;;;;;19.50;76.90;;;;;;5044575;28;19913;-68
2022/12/14 10:14:15;;;;;;;;;;;19.50;76.80;;;;;;5039661;28;19920;-67
2022/12/14 10:16:44;;;;;;;;;;;19.50;77.20;;;;;;5045603;28;19919;-66
2022/12/14 10:19:26;;;;;;;;;;;19.50;77.10;;;;;;5044348;28;19929;-65
2022/12/14 10:22:02;;;;;;;;;;;19.40;77.10;;;;;;5045228;28;20560;-66
2022/12/14 10:24:37;;;;;;;;;;;19.40;76.40;;;;;;5044446;28;19916;-67
2022/12/14 10:27:06;;;;;;;;;;;19.40;76.80;;;;;;5044466;28;19979;-67
2022/12/14 10:29:45;;;;;;;;;;;19.50;76.70;;;;;;5044164;28;19974;-68
2022/12/14 10:32:12;;;;;;;;;;;19.40;76.90;;;;;;5044826;28;19948;-65
2022/12/14 10:34:39;;;;;;;;;;;19.40;77.30;;;;;;5044384;28;19924;-66
2022/12/14 10:37:25;;;;;;;;;;;19.40;77.70;;;;;;5044885;28;19913;-65
2022/12/14 10:39:58;;;;;;;;;;;19.30;77.60;;;;;;5044428;28;20083;-67
2022/12/14 10:42:30;;;;;;;;;;;19.30;78.30;;;;;;5043834;28;19920;-65
2022/12/14 10:45:15;;;;;;;;;;;19.30;77.90;;;;;;5044488;28;19913;-65
2022/12/14 10:47:45;;;;;;;;;;;19.20;77.70;;;;;;5044106;28;20011;-66
2022/12/14 10:50:35;;;;;;;;;;;19.20;77.90;;;;;;5045068;28;20016;-65
2022/12/14 10:53:02;;;;;;;;;;;19.20;78.80;;;;;;5043933;28;20346;-68
2022/12/14 10:55:32;;;;;;;;;;;19.20;78.80;;;;;;5044765;28;19920;-66
2022/12/14 10:58:00;;;;;;;;;;;19.10;79.40;;;;;;5042772;28;20381;-66
2022/12/14 11:00:27;;;;;;;;;;;19.10;79.20;;;;;;5044285;28;20387;-66
2022/12/14 11:02:54;;;;;;;;;;;19.10;79.90;;;;;;5044220;28;19920;-66
2022/12/14 11:05:26;;;;;;;;;;;19.10;79.30;;;;;;5044675;28;19917;-66
2022/12/14 11:07:54;;;;;;;;;;;19.00;79.50;;;;;;5044870;28;20642;-65
2022/12/14 11:10:23;;;;;;;;;;;19.00;79.80;;;;;;5043926;28;19917;-67
2022/12/14 11:12:57;;;;;;;;;;;19.00;80.00;;;;;;5043516;28;19980;-69
2022/12/14 11:15:27;;;;;;;;;;;19.00;80.20;;;;;;5043682;28;19917;-69
2022/12/14 11:18:01;;;;;;;;;;;19.10;80.60;;;;;;5043381;28;19924;-69
2022/12/14 11:20:28;;;;;;;;;;;19.00;80.00;;;;;;5043526;28;20608;-67
2022/12/14 11:22:56;;;;;;;;;;;18.90;79.80;;;;;;5043242;28;20438;-68
2022/12/14 11:25:26;;;;;;;;;;;18.90;80.60;;;;;;5044649;28;19920;-65
2022/12/14 11:27:52;;;;;;;;;;;18.90;80.50;;;;;;5049010;28;19923;-69
2022/12/14 11:30:19;;;;;;;;;;;18.90;80.50;;;;;;5050483;28;19927;-70
2022/12/14 11:32:47;;;;;;;;;;;18.90;80.60;;;;;;5051245;28;20312;-70
2022/12/14 11:35:19;;;;;;;;;;;19.00;81.10;;;;;;5050566;28;19924;-70
2022/12/14 11:37:49;;;;;;;;;;;18.90;81.60;;;;;;5051024;28;19913;-69
2022/12/14 11:40:22;;;;;;;;;;;18.90;81.40;;;;;;5050147;28;19924;-70
2022/12/14 11:42:49;;;;;;;;;;;18.90;81.40;;;;;;5050167;28;19928;-68
2022/12/14 11:45:25;;;;;;;;;;;18.90;81.60;;;;;;5051167;28;20027;-70
2022/12/14 11:48:10;;;;;;;;;;;18.80;81.90;;;;;;5050112;28;20020;-69
2022/12/14 11:50:37;;;;;;;;;;;18.80;82.60;;;;;;5050865;28;20007;-69
2022/12/14 11:53:10;;;;;;;;;;;18.80;83.20;;;;;;5049265;28;19940;-69
2022/12/14 11:55:38;;;;;;;;;;;18.70;85.70;;;;;;5050585;28;19912;-69
2022/12/14 11:58:05;;;;;;;;;;;18.70;86.50;;;;;;5049967;28;20388;-66
2022/12/14 12:00:54;;;;;;;;;;;18.80;87.10;;;;;;5051191;28;20435;-69
2022/12/14 12:03:27;;;;;;;;;;;18.70;86.20;;;;;;5049395;28;20624;-69
2022/12/14 12:05:54;;;;;;;;;;;18.60;85.20;;;;;;5050211;28;20602;-66
2022/12/14 12:08:26;;;;;;;;;;;18.60;86.30;;;;;;5050240;28;19916;-69
2022/12/14 12:10:59;;;;;;;;;;;18.60;88.70;;;;;;5030734;28;19913;-69
2022/12/14 12:13:29;;;;;;;;;;;18.60;90.00;;;;;;5030862;28;19913;-69
2022/12/14 12:16:00;;;;;;;;;;;18.50;90.70;;;;;;5030171;28;19913;-66
2022/12/14 12:18:36;;;;;;;;;;;18.40;92.30;;;;;;5048949;28;20454;-69
2022/12/14 12:21:03;;;;;;;;;;;18.30;95.00;;;;;;5050762;28;19924;-69
2022/12/14 12:23:52;;;;;;;;;;;18.10;96.20;;;;;;5050024;28;19917;-67
2022/12/14 12:26:24;;;;;;;;;;;18.10;96.90;;;;;;5039442;28;19919;-71
2022/12/14 12:28:58;;;;;;;;;;;18.00;97.80;;;;;;5050246;28;19932;-65
2022/12/14 12:31:37;;;;;;;;;;;18.00;98.50;;;;;;5058053;28;19927;-64
2022/12/14 12:34:17;;;;;;;;;;;18.00;99.10;;;;;;5059429;28;19908;-64
2022/12/14 12:36:44;;;;;;;;;;;18.10;99.30;;;;;;5058783;28;20026;-64
2022/12/14 12:39:14;;;;;;;;;;;18.10;99.90;;;;;;5056004;28;19928;-64
2022/12/14 12:41:50;;;;;;;;;;;18.00;99.90;;;;;;5056094;28;19913;-64
2022/12/14 12:44:21;;;;;;;;;;;18.10;99.90;;;;;;5055236;28;19959;-64
2022/12/14 12:47:08;;;;;;;;;;;18.10;99.90;;;;;;5055736;28;20384;-64
2022/12/14 12:49:34;;;;;;;;;;;18.10;99.90;;;;;;5024685;28;19971;-64
2022/12/14 12:52:03;;;;;;;;;;;18.00;99.90;;;;;;5055807;28;19909;-64
2022/12/14 12:54:42;;;;;;;;;;;17.90;99.90;;;;;;5055797;28;19980;-65
2022/12/14 12:57:11;;;;;;;;;;;17.90;99.90;;;;;;5036762;28;20359;-65
2022/12/14 12:59:40;;;;;;;;;;;17.90;99.90;;;;;;5054745;28;20387;-65
2022/12/14 13:02:24;;;;;;;;;;;17.90;99.90;;;;;;5055618;28;20359;-65
2022/12/14 13:04:52;;;;;;;;;;;17.80;99.90;;;;;;5054630;28;19995;-66
2022/12/14 13:07:29;;;;;;;;;;;17.70;99.90;;;;;;5055634;28;19912;-64
2022/12/14 13:10:13;;;;;;;;;;;17.70;99.90;;;;;;5054872;28;19909;-65
2022/12/14 13:12:45;;;;;;;;;;;17.80;99.90;;;;;;5054717;28;19966;-64
2022/12/14 13:15:19;;;;;;;;;;;17.90;99.90;;;;;;5054670;28;19912;-65
2022/12/14 13:18:06;;;;;;;;;;;17.90;99.90;;;;;;5055642;28;19981;-65
2022/12/14 13:20:33;;;;;;;;;;;17.90;99.90;;;;;;5040220;28;19921;-65
2022/12/14 13:23:03;;;;;;;;;;;17.80;99.90;;;;;;5055238;28;19917;-65
2022/12/14 13:25:42;;;;;;;;;;;17.80;99.90;;;;;;5054419;28;19913;-64
2022/12/14 13:28:15;;;;;;;;;;;17.80;99.90;;;;;;5054757;28;19913;-65
2022/12/14 13:30:46;;;;;;;;;;;17.70;99.90;;;;;;5055052;28;19920;-65
2022/12/14 13:33:32;;;;;;;;;;;17.80;99.90;;;;;;5055326;28;19924;-66
2022/12/14 13:36:01;;;;;;;;;;;17.80;99.90;;;;;;5055058;28;19913;-64
2022/12/14 13:38:46;;;;;;;;;;;17.90;99.90;;;;;;5054524;28;19916;-65
2022/12/14 13:41:19;;;;;;;;;;;17.80;99.90;;;;;;5054084;28;19912;-65
2022/12/14 13:44:09;;;;;;;;;;;17.80;99.90;;;;;;5054195;28;20249;-65
2022/12/14 13:46:36;;;;;;;;;;;17.90;99.90;;;;;;5046978;28;19919;-65
2022/12/14 13:49:05;;;;;;;;;;;17.80;99.90;;;;;;5053901;28;19908;-64
2022/12/14 13:51:35;;;;;;;;;;;17.80;99.90;;;;;;5054511;28;19956;-66
2022/12/14 13:54:03;;;;;;;;;;;17.70;99.90;;;;;;5053956;28;19940;-64
2022/12/14 13:56:38;;;;;;;;;;;17.60;99.90;;;;;;5054968;28;20046;-64
2022/12/14 13:59:16;;;;;;;;;;;17.50;99.90;;;;;;5052849;28;19989;-65
2022/12/14 14:01:46;;;;;;;;;;;17.60;99.90;;;;;;5054925;28;19909;-65
2022/12/14 14:04:15;;;;;;;;;;;17.60;99.90;;;;;;5053172;28;19913;-65
2022/12/14 14:06:45;;;;;;;;;;;17.50;99.90;;;;;;5054748;28;19928;-65
2022/12/14 14:09:30;;;;;;;;;;;17.50;99.90;;;;;;5054073;28;20259;-65
2022/12/14 14:11:58;;;;;;;;;;;17.40;99.90;;;;;;5054819;28;19909;-64
2022/12/14 14:14:37;;;;;;;;;;;17.50;99.90;;;;;;5053989;28;20368;-65
2022/12/14 14:17:22;;;;;;;;;;;17.50;99.90;;;;;;5053735;28;20012;-65
2022/12/14 14:19:48;;;;;;;;;;;17.50;99.90;;;;;;5054700;28;19925;-65
2022/12/14 14:22:17;;;;;;;;;;;17.40;99.90;;;;;;5054175;28;20371;-65
2022/12/14 14:24:54;;;;;;;;;;;17.30;99.90;;;;;;5054914;28;20328;-66
2022/12/14 14:27:24;;;;;;;;;;;17.30;99.20;;;;;;5054535;28;19920;-65
2022/12/14 14:29:51;;;;;;;;;;;17.30;97.50;;;;;;5053432;28;19943;-65
2022/12/14 14:32:32;;;;;;;;;;;17.30;97.90;;;;;;5055665;28;19912;-66
2022/12/14 14:35:00;;;;;;;;;;;17.30;96.80;;;;;;5054699;28;19921;-66
2022/12/14 14:37:29;;;;;;;;;;;17.30;97.40;;;;;;5057099;28;19943;-65
2022/12/14 14:40:02;;;;;;;;;;;17.30;97.50;;;;;;5056040;28;19920;-65
2022/12/14 14:42:30;;;;;;;;;;;17.30;96.90;;;;;;5056715;28;20256;-65
2022/12/14 14:45:02;;;;;;;;;;;17.30;96.90;;;;;;5058436;28;19908;-65
2022/12/14 14:47:34;;;;;;;;;;;17.30;96.80;;;;;;5058782;28;19916;-65
2022/12/14 14:50:07;;;;;;;;;;;17.30;96.70;;;;;;5059496;28;19916;-67